sensor_id;sensor_type;location;lat;lon;timestamp;P1;durP1;ratioP1;P2;durP2;ratioP2
6243;SDS011;3155;49.940;8.450;2023-07-20T00:00:26;905.88;;;673.22;;
6243;SDS011;3155;49.940;8.450;2023-07-20T00:03:09;901.22;;;662.33;;
6243;SDS011;3155;49.940;8.450;2023-07-20T00:05:36;902.45;;;665.85;;
6243;SDS011;3155;49.940;8.450;2023-07-20T00:08:03;905.08;;;670.03;;
6243;SDS011;3155;49.940;8.450;2023-07-20T00:10:30;910.65;;;675.67;;
6243;SDS011;3155;49.940;8.450;2023-07-20T00:13:01;888.65;;;648.63;;
6243;SDS011;3155;49.940;8.450;2023-07-20T00:15:31;872.67;;;634.23;;
6243;SDS011;3155;49.940;8.450;2023-07-20T00:17:58;869.28;;;629.92;;
6243;SDS011;3155;49.940;8.450;2023-07-20T00:20:25;869.45;;;623.88;;
6243;SDS011;3155;49.940;8.450;2023-07-20T00:22:52;865.95;;;608.08;;
6243;SDS011;3155;49.940;8.450;2023-07-20T00:25:21;853.85;;;589.10;;
6243;SDS011;3155;49.940;8.450;2023-07-20T00:27:48;853.78;;;598.40;;
6243;SDS011;3155;49.940;8.450;2023-07-20T00:30:15;938.77;;;675.87;;
6243;SDS011;3155;49.940;8.450;2023-07-20T00:32:43;920.15;;;657.28;;
6243;SDS011;3155;49.940;8.450;2023-07-20T00:35:10;902.72;;;637.38;;
6243;SDS011;3155;49.940;8.450;2023-07-20T00:37:38;839.25;;;558.17;;
6243;SDS011;3155;49.940;8.450;2023-07-20T00:40:06;826.53;;;573.40;;
6243;SDS011;3155;49.940;8.450;2023-07-20T00:42:33;836.67;;;544.08;;
6243;SDS011;3155;49.940;8.450;2023-07-20T00:45:03;14.65;;;13.52;;
6243;SDS011;3155;49.940;8.450;2023-07-20T00:47:38;908.42;;;645.47;;
6243;SDS011;3155;49.940;8.450;2023-07-20T00:50:05;898.78;;;640.90;;
6243;SDS011;3155;49.940;8.450;2023-07-20T00:52:33;878.00;;;622.50;;
6243;SDS011;3155;49.940;8.450;2023-07-20T00:55:00;853.75;;;606.05;;
6243;SDS011;3155;49.940;8.450;2023-07-20T00:57:28;841.58;;;593.20;;
6243;SDS011;3155;49.940;8.450;2023-07-20T00:59:58;816.55;;;573.83;;
6243;SDS011;3155;49.940;8.450;2023-07-20T01:02:26;814.83;;;570.28;;
6243;SDS011;3155;49.940;8.450;2023-07-20T01:04:53;806.13;;;556.80;;
6243;SDS011;3155;49.940;8.450;2023-07-20T01:07:25;803.83;;;557.97;;
6243;SDS011;3155;49.940;8.450;2023-07-20T01:10:05;807.65;;;550.00;;
6243;SDS011;3155;49.940;8.450;2023-07-20T01:12:41;792.07;;;537.97;;
6243;SDS011;3155;49.940;8.450;2023-07-20T01:15:09;797.85;;;550.05;;
6243;SDS011;3155;49.940;8.450;2023-07-20T01:17:37;801.10;;;541.13;;
6243;SDS011;3155;49.940;8.450;2023-07-20T01:20:04;800.75;;;553.35;;
6243;SDS011;3155;49.940;8.450;2023-07-20T01:32:57;810.83;;;542.03;;
6243;SDS011;3155;49.940;8.450;2023-07-20T01:35:27;810.78;;;541.60;;
6243;SDS011;3155;49.940;8.450;2023-07-20T01:37:54;798.35;;;530.05;;
6243;SDS011;3155;49.940;8.450;2023-07-20T01:40:21;808.10;;;521.10;;
6243;SDS011;3155;49.940;8.450;2023-07-20T01:42:51;816.83;;;557.05;;
6243;SDS011;3155;49.940;8.450;2023-07-20T01:45:19;805.63;;;546.85;;
6243;SDS011;3155;49.940;8.450;2023-07-20T01:47:47;1.98;;;1.88;;
6243;SDS011;3155;49.940;8.450;2023-07-20T01:50:15;10.65;;;9.68;;
6243;SDS011;3155;49.940;8.450;2023-07-20T01:52:43;111.95;;;102.88;;
6243;SDS011;3155;49.940;8.450;2023-07-20T01:55:10;880.40;;;672.17;;
6243;SDS011;3155;49.940;8.450;2023-07-20T01:57:37;925.85;;;666.95;;
6243;SDS011;3155;49.940;8.450;2023-07-20T02:00:04;896.95;;;596.20;;
6243;SDS011;3155;49.940;8.450;2023-07-20T02:02:33;805.95;;;498.58;;
6243;SDS011;3155;49.940;8.450;2023-07-20T02:05:00;800.13;;;503.73;;
6243;SDS011;3155;49.940;8.450;2023-07-20T02:07:27;795.80;;;500.73;;
6243;SDS011;3155;49.940;8.450;2023-07-20T02:09:54;807.72;;;509.02;;
6243;SDS011;3155;49.940;8.450;2023-07-20T02:12:21;807.58;;;517.80;;
6243;SDS011;3155;49.940;8.450;2023-07-20T02:14:49;799.23;;;509.77;;
6243;SDS011;3155;49.940;8.450;2023-07-20T02:17:17;847.08;;;546.35;;
6243;SDS011;3155;49.940;8.450;2023-07-20T02:19:44;831.97;;;608.78;;
6243;SDS011;3155;49.940;8.450;2023-07-20T02:22:11;844.10;;;579.22;;
6243;SDS011;3155;49.940;8.450;2023-07-20T02:24:38;883.05;;;592.83;;
6243;SDS011;3155;49.940;8.450;2023-07-20T02:27:06;812.70;;;557.67;;
6243;SDS011;3155;49.940;8.450;2023-07-20T02:29:33;804.00;;;560.40;;
6243;SDS011;3155;49.940;8.450;2023-07-20T02:32:00;863.25;;;566.65;;
6243;SDS011;3155;49.940;8.450;2023-07-20T02:34:27;870.05;;;608.58;;
6243;SDS011;3155;49.940;8.450;2023-07-20T02:36:55;92.68;;;83.18;;
6243;SDS011;3155;49.940;8.450;2023-07-20T02:39:24;818.40;;;544.00;;
6243;SDS011;3155;49.940;8.450;2023-07-20T02:41:51;802.53;;;532.60;;
6243;SDS011;3155;49.940;8.450;2023-07-20T02:44:19;809.22;;;536.75;;
6243;SDS011;3155;49.940;8.450;2023-07-20T02:46:46;795.15;;;517.08;;
6243;SDS011;3155;49.940;8.450;2023-07-20T02:49:13;802.50;;;527.05;;
6243;SDS011;3155;49.940;8.450;2023-07-20T02:51:40;810.60;;;531.92;;
6243;SDS011;3155;49.940;8.450;2023-07-20T02:54:07;807.10;;;519.08;;
6243;SDS011;3155;49.940;8.450;2023-07-20T02:56:34;803.10;;;534.67;;
6243;SDS011;3155;49.940;8.450;2023-07-20T02:59:08;799.53;;;538.53;;
6243;SDS011;3155;49.940;8.450;2023-07-20T03:01:35;804.25;;;539.00;;
6243;SDS011;3155;49.940;8.450;2023-07-20T03:04:02;802.85;;;548.50;;
6243;SDS011;3155;49.940;8.450;2023-07-20T03:06:33;799.42;;;539.80;;
6243;SDS011;3155;49.940;8.450;2023-07-20T03:09:02;800.28;;;534.15;;
6243;SDS011;3155;49.940;8.450;2023-07-20T03:11:29;801.92;;;515.58;;
6243;SDS011;3155;49.940;8.450;2023-07-20T03:13:57;799.90;;;523.35;;
6243;SDS011;3155;49.940;8.450;2023-07-20T03:16:27;802.15;;;534.25;;
6243;SDS011;3155;49.940;8.450;2023-07-20T03:18:54;803.53;;;543.28;;
6243;SDS011;3155;49.940;8.450;2023-07-20T03:21:21;802.47;;;534.53;;
6243;SDS011;3155;49.940;8.450;2023-07-20T03:23:48;794.60;;;524.70;;
6243;SDS011;3155;49.940;8.450;2023-07-20T03:26:15;788.58;;;518.58;;
6243;SDS011;3155;49.940;8.450;2023-07-20T03:28:44;785.13;;;506.05;;
6243;SDS011;3155;49.940;8.450;2023-07-20T03:31:12;785.75;;;501.80;;
6243;SDS011;3155;49.940;8.450;2023-07-20T03:33:41;773.53;;;491.73;;
6243;SDS011;3155;49.940;8.450;2023-07-20T03:36:08;773.90;;;491.73;;
6243;SDS011;3155;49.940;8.450;2023-07-20T03:38:36;825.25;;;535.65;;
6243;SDS011;3155;49.940;8.450;2023-07-20T03:41:03;772.95;;;508.52;;
6243;SDS011;3155;49.940;8.450;2023-07-20T03:43:30;764.95;;;491.08;;
6243;SDS011;3155;49.940;8.450;2023-07-20T03:46:00;766.67;;;501.08;;
6243;SDS011;3155;49.940;8.450;2023-07-20T03:48:33;761.33;;;491.10;;
6243;SDS011;3155;49.940;8.450;2023-07-20T03:51:00;764.28;;;496.73;;
6243;SDS011;3155;49.940;8.450;2023-07-20T03:53:30;793.63;;;503.07;;
6243;SDS011;3155;49.940;8.450;2023-07-20T03:56:00;595.92;;;530.83;;
6243;SDS011;3155;49.940;8.450;2023-07-20T03:58:27;845.08;;;538.00;;
6243;SDS011;3155;49.940;8.450;2023-07-20T04:00:58;236.55;;;172.10;;
6243;SDS011;3155;49.940;8.450;2023-07-20T04:03:25;762.95;;;475.98;;
6243;SDS011;3155;49.940;8.450;2023-07-20T04:05:56;775.03;;;487.63;;
6243;SDS011;3155;49.940;8.450;2023-07-20T04:08:29;758.05;;;483.45;;
6243;SDS011;3155;49.940;8.450;2023-07-20T04:10:56;761.05;;;483.17;;
6243;SDS011;3155;49.940;8.450;2023-07-20T04:13:24;762.95;;;496.92;;
6243;SDS011;3155;49.940;8.450;2023-07-20T04:15:51;758.25;;;497.20;;
6243;SDS011;3155;49.940;8.450;2023-07-20T04:18:18;758.33;;;495.97;;
6243;SDS011;3155;49.940;8.450;2023-07-20T04:20:48;759.38;;;491.70;;
6243;SDS011;3155;49.940;8.450;2023-07-20T04:23:15;759.38;;;494.17;;
6243;SDS011;3155;49.940;8.450;2023-07-20T04:25:43;763.60;;;497.08;;
6243;SDS011;3155;49.940;8.450;2023-07-20T04:28:14;756.13;;;499.80;;
6243;SDS011;3155;49.940;8.450;2023-07-20T04:30:41;760.35;;;495.73;;
6243;SDS011;3155;49.940;8.450;2023-07-20T04:33:11;396.80;;;265.02;;
6243;SDS011;3155;49.940;8.450;2023-07-20T04:38:15;126.70;;;115.07;;
6243;SDS011;3155;49.940;8.450;2023-07-20T04:40:44;884.97;;;625.00;;
6243;SDS011;3155;49.940;8.450;2023-07-20T04:43:12;873.63;;;571.85;;
6243;SDS011;3155;49.940;8.450;2023-07-20T04:45:39;5.33;;;2.00;;
6243;SDS011;3155;49.940;8.450;2023-07-20T04:48:08;42.33;;;36.67;;
6243;SDS011;3155;49.940;8.450;2023-07-20T04:50:37;175.15;;;159.30;;
6243;SDS011;3155;49.940;8.450;2023-07-20T04:53:04;789.90;;;650.30;;
6243;SDS011;3155;49.940;8.450;2023-07-20T04:55:32;808.88;;;578.95;;
6243;SDS011;3155;49.940;8.450;2023-07-20T04:58:03;817.85;;;580.88;;
6243;SDS011;3155;49.940;8.450;2023-07-20T05:00:31;815.80;;;574.20;;
6243;SDS011;3155;49.940;8.450;2023-07-20T05:02:58;822.80;;;606.95;;
6243;SDS011;3155;49.940;8.450;2023-07-20T05:05:25;821.95;;;597.00;;
6243;SDS011;3155;49.940;8.450;2023-07-20T05:07:52;828.33;;;601.08;;
6243;SDS011;3155;49.940;8.450;2023-07-20T05:10:20;831.95;;;600.22;;
6243;SDS011;3155;49.940;8.450;2023-07-20T05:12:48;833.35;;;615.15;;
6243;SDS011;3155;49.940;8.450;2023-07-20T05:15:24;855.38;;;614.35;;
6243;SDS011;3155;49.940;8.450;2023-07-20T05:17:54;866.10;;;625.65;;
6243;SDS011;3155;49.940;8.450;2023-07-20T05:20:31;866.22;;;638.33;;
6243;SDS011;3155;49.940;8.450;2023-07-20T05:22:59;875.72;;;653.58;;
6243;SDS011;3155;49.940;8.450;2023-07-20T05:25:27;878.53;;;654.20;;
6243;SDS011;3155;49.940;8.450;2023-07-20T05:27:57;874.40;;;660.17;;
6243;SDS011;3155;49.940;8.450;2023-07-20T05:30:25;860.93;;;643.43;;
6243;SDS011;3155;49.940;8.450;2023-07-20T05:32:52;876.38;;;670.15;;
6243;SDS011;3155;49.940;8.450;2023-07-20T05:35:21;857.80;;;646.30;;
6243;SDS011;3155;49.940;8.450;2023-07-20T05:37:48;855.25;;;645.72;;
6243;SDS011;3155;49.940;8.450;2023-07-20T05:40:16;870.85;;;652.42;;
6243;SDS011;3155;49.940;8.450;2023-07-20T05:42:46;891.95;;;685.75;;
6243;SDS011;3155;49.940;8.450;2023-07-20T05:45:14;959.13;;;779.57;;
6243;SDS011;3155;49.940;8.450;2023-07-20T05:47:41;897.15;;;706.40;;
6243;SDS011;3155;49.940;8.450;2023-07-20T05:50:09;879.97;;;697.53;;
6243;SDS011;3155;49.940;8.450;2023-07-20T05:52:36;879.33;;;709.45;;
6243;SDS011;3155;49.940;8.450;2023-07-20T05:55:05;925.95;;;749.50;;
6243;SDS011;3155;49.940;8.450;2023-07-20T05:57:33;915.75;;;745.80;;
6243;SDS011;3155;49.940;8.450;2023-07-20T06:00:01;908.67;;;733.67;;
6243;SDS011;3155;49.940;8.450;2023-07-20T06:02:29;905.60;;;734.33;;
6243;SDS011;3155;49.940;8.450;2023-07-20T06:04:56;904.75;;;739.00;;
6243;SDS011;3155;49.940;8.450;2023-07-20T06:07:26;922.80;;;767.65;;
6243;SDS011;3155;49.940;8.450;2023-07-20T06:09:53;922.47;;;762.40;;
6243;SDS011;3155;49.940;8.450;2023-07-20T06:12:23;922.00;;;762.38;;
6243;SDS011;3155;49.940;8.450;2023-07-20T06:14:53;969.75;;;874.90;;
6243;SDS011;3155;49.940;8.450;2023-07-20T06:17:22;284.83;;;260.27;;
6243;SDS011;3155;49.940;8.450;2023-07-20T06:19:50;332.77;;;304.73;;
6243;SDS011;3155;49.940;8.450;2023-07-20T06:22:17;1029.60;;;930.75;;
6243;SDS011;3155;49.940;8.450;2023-07-20T06:24:44;1012.25;;;884.53;;
6243;SDS011;3155;49.940;8.450;2023-07-20T06:27:11;1001.15;;;869.58;;
6243;SDS011;3155;49.940;8.450;2023-07-20T06:29:38;991.15;;;863.50;;
6243;SDS011;3155;49.940;8.450;2023-07-20T06:32:11;84.45;;;76.20;;
6243;SDS011;3155;49.940;8.450;2023-07-20T06:34:42;152.18;;;136.10;;
6243;SDS011;3155;49.940;8.450;2023-07-20T06:37:09;1004.42;;;881.83;;
6243;SDS011;3155;49.940;8.450;2023-07-20T06:39:38;307.13;;;280.70;;
6243;SDS011;3155;49.940;8.450;2023-07-20T06:42:15;1.77;;;1.67;;
6243;SDS011;3155;49.940;8.450;2023-07-20T06:44:42;1031.35;;;935.45;;
6243;SDS011;3155;49.940;8.450;2023-07-20T06:47:09;972.47;;;887.22;;
6243;SDS011;3155;49.940;8.450;2023-07-20T06:49:36;179.25;;;163.82;;
6243;SDS011;3155;49.940;8.450;2023-07-20T06:52:09;559.03;;;501.58;;
6243;SDS011;3155;49.940;8.450;2023-07-20T06:54:36;7.35;;;6.00;;
6243;SDS011;3155;49.940;8.450;2023-07-20T06:57:09;388.70;;;351.40;;
6243;SDS011;3155;49.940;8.450;2023-07-20T06:59:39;3.92;;;1.80;;
6243;SDS011;3155;49.940;8.450;2023-07-20T07:02:07;32.38;;;28.88;;
6243;SDS011;3155;49.940;8.450;2023-07-20T07:04:43;8.85;;;7.57;;
6243;SDS011;3155;49.940;8.450;2023-07-20T07:07:11;119.55;;;108.38;;
6243;SDS011;3155;49.940;8.450;2023-07-20T07:09:38;916.70;;;835.60;;
6243;SDS011;3155;49.940;8.450;2023-07-20T07:12:06;1024.28;;;923.70;;
6243;SDS011;3155;49.940;8.450;2023-07-20T07:14:33;1016.78;;;907.10;;
6243;SDS011;3155;49.940;8.450;2023-07-20T07:17:01;1032.30;;;895.63;;
6243;SDS011;3155;49.940;8.450;2023-07-20T07:19:31;817.30;;;744.72;;
6243;SDS011;3155;49.940;8.450;2023-07-20T07:21:58;14.97;;;13.93;;
6243;SDS011;3155;49.940;8.450;2023-07-20T07:24:26;457.95;;;417.48;;
6243;SDS011;3155;49.940;8.450;2023-07-20T07:27:00;221.20;;;202.27;;
6243;SDS011;3155;49.940;8.450;2023-07-20T07:29:27;399.00;;;363.93;;
6243;SDS011;3155;49.940;8.450;2023-07-20T07:31:55;1025.00;;;882.00;;
6243;SDS011;3155;49.940;8.450;2023-07-20T07:34:22;984.80;;;833.45;;
6243;SDS011;3155;49.940;8.450;2023-07-20T07:36:49;970.65;;;839.53;;
6243;SDS011;3155;49.940;8.450;2023-07-20T07:39:19;1.73;;;1.60;;
6243;SDS011;3155;49.940;8.450;2023-07-20T07:41:49;2.27;;;1.63;;
6243;SDS011;3155;49.940;8.450;2023-07-20T07:44:16;7.00;;;6.57;;
6243;SDS011;3155;49.940;8.450;2023-07-20T07:46:43;5.82;;;5.40;;
6243;SDS011;3155;49.940;8.450;2023-07-20T07:49:10;4.10;;;1.70;;
6243;SDS011;3155;49.940;8.450;2023-07-20T07:51:38;3.10;;;2.30;;
6243;SDS011;3155;49.940;8.450;2023-07-20T07:54:07;4.80;;;2.00;;
6243;SDS011;3155;49.940;8.450;2023-07-20T07:56:34;2.33;;;2.13;;
6243;SDS011;3155;49.940;8.450;2023-07-20T07:59:02;967.22;;;882.05;;
6243;SDS011;3155;49.940;8.450;2023-07-20T08:01:29;923.40;;;839.58;;
6243;SDS011;3155;49.940;8.450;2023-07-20T08:03:56;1053.28;;;942.55;;
6243;SDS011;3155;49.940;8.450;2023-07-20T08:06:23;1082.53;;;983.25;;
6243;SDS011;3155;49.940;8.450;2023-07-20T08:08:55;102.03;;;92.47;;
6243;SDS011;3155;49.940;8.450;2023-07-20T08:11:27;363.70;;;332.10;;
6243;SDS011;3155;49.940;8.450;2023-07-20T08:13:56;3.05;;;1.52;;
6243;SDS011;3155;49.940;8.450;2023-07-20T08:16:24;1.98;;;1.52;;
6243;SDS011;3155;49.940;8.450;2023-07-20T08:18:52;60.53;;;55.85;;
6243;SDS011;3155;49.940;8.450;2023-07-20T08:21:19;595.10;;;540.27;;
6243;SDS011;3155;49.940;8.450;2023-07-20T08:23:50;161.07;;;145.97;;
6243;SDS011;3155;49.940;8.450;2023-07-20T08:26:19;15.70;;;14.63;;
6243;SDS011;3155;49.940;8.450;2023-07-20T08:28:51;85.28;;;73.70;;
6243;SDS011;3155;49.940;8.450;2023-07-20T08:31:18;298.48;;;273.08;;
6243;SDS011;3155;49.940;8.450;2023-07-20T08:33:47;105.90;;;96.90;;
6243;SDS011;3155;49.940;8.450;2023-07-20T08:36:16;1.83;;;1.70;;
6243;SDS011;3155;49.940;8.450;2023-07-20T08:38:43;2.30;;;1.77;;
6243;SDS011;3155;49.940;8.450;2023-07-20T08:41:14;2.63;;;1.70;;
6243;SDS011;3155;49.940;8.450;2023-07-20T08:43:42;4.43;;;1.80;;
6243;SDS011;3155;49.940;8.450;2023-07-20T08:46:10;2.85;;;1.30;;
6243;SDS011;3155;49.940;8.450;2023-07-20T08:48:40;1.60;;;1.50;;
6243;SDS011;3155;49.940;8.450;2023-07-20T08:51:07;487.92;;;445.67;;
6243;SDS011;3155;49.940;8.450;2023-07-20T08:53:35;828.28;;;756.38;;
6243;SDS011;3155;49.940;8.450;2023-07-20T08:56:02;890.53;;;814.30;;
6243;SDS011;3155;49.940;8.450;2023-07-20T08:58:31;999.90;;;899.13;;
6243;SDS011;3155;49.940;8.450;2023-07-20T09:00:58;1099.90;;;995.53;;
6243;SDS011;3155;49.940;8.450;2023-07-20T09:03:29;909.10;;;831.20;;
6243;SDS011;3155;49.940;8.450;2023-07-20T09:05:56;1070.05;;;952.58;;
6243;SDS011;3155;49.940;8.450;2023-07-20T09:08:24;1065.65;;;954.88;;
6243;SDS011;3155;49.940;8.450;2023-07-20T09:10:51;631.67;;;575.22;;
6243;SDS011;3155;49.940;8.450;2023-07-20T09:13:19;1115.73;;;996.57;;
6243;SDS011;3155;49.940;8.450;2023-07-20T09:15:52;114.65;;;104.45;;
6243;SDS011;3155;49.940;8.450;2023-07-20T09:18:27;382.47;;;348.33;;
6243;SDS011;3155;49.940;8.450;2023-07-20T09:21:05;412.15;;;375.50;;
6243;SDS011;3155;49.940;8.450;2023-07-20T09:23:36;706.03;;;647.47;;
6243;SDS011;3155;49.940;8.450;2023-07-20T09:26:11;44.55;;;40.25;;
6243;SDS011;3155;49.940;8.450;2023-07-20T09:28:43;1.52;;;1.42;;
6243;SDS011;3155;49.940;8.450;2023-07-20T09:31:16;1.55;;;1.45;;
6243;SDS011;3155;49.940;8.450;2023-07-20T09:33:45;1.35;;;1.25;;
6243;SDS011;3155;49.940;8.450;2023-07-20T09:36:15;1.40;;;1.20;;
6243;SDS011;3155;49.940;8.450;2023-07-20T09:39:03;2.05;;;1.30;;
6243;SDS011;3155;49.940;8.450;2023-07-20T09:41:39;1.35;;;1.30;;
6243;SDS011;3155;49.940;8.450;2023-07-20T09:44:11;2.83;;;1.65;;
6243;SDS011;3155;49.940;8.450;2023-07-20T09:46:42;1.83;;;1.40;;
6243;SDS011;3155;49.940;8.450;2023-07-20T09:49:12;1.90;;;1.63;;
6243;SDS011;3155;49.940;8.450;2023-07-20T09:51:42;1.75;;;1.58;;
6243;SDS011;3155;49.940;8.450;2023-07-20T09:54:13;1.95;;;1.60;;
6243;SDS011;3155;49.940;8.450;2023-07-20T09:56:42;1.65;;;1.60;;
6243;SDS011;3155;49.940;8.450;2023-07-20T09:59:09;1.57;;;1.47;;
6243;SDS011;3155;49.940;8.450;2023-07-20T10:01:36;2.72;;;1.58;;
6243;SDS011;3155;49.940;8.450;2023-07-20T10:04:07;1.30;;;1.30;;
6243;SDS011;3155;49.940;8.450;2023-07-20T10:06:39;2.13;;;1.40;;
6243;SDS011;3155;49.940;8.450;2023-07-20T10:09:12;2.80;;;2.33;;
6243;SDS011;3155;49.940;8.450;2023-07-20T10:11:40;25.73;;;23.17;;
6243;SDS011;3155;49.940;8.450;2023-07-20T10:14:20;2.38;;;2.05;;
6243;SDS011;3155;49.940;8.450;2023-07-20T10:16:50;37.13;;;33.43;;
6243;SDS011;3155;49.940;8.450;2023-07-20T10:22:03;3.65;;;1.30;;
6243;SDS011;3155;49.940;8.450;2023-07-20T10:24:35;31.17;;;28.17;;
6243;SDS011;3155;49.940;8.450;2023-07-20T10:27:03;11.45;;;10.43;;
6243;SDS011;3155;49.940;8.450;2023-07-20T10:29:33;2.97;;;2.45;;
6243;SDS011;3155;49.940;8.450;2023-07-20T10:32:01;51.25;;;47.45;;
6243;SDS011;3155;49.940;8.450;2023-07-20T10:34:28;333.58;;;304.42;;
6243;SDS011;3155;49.940;8.450;2023-07-20T10:36:59;888.13;;;804.20;;
6243;SDS011;3155;49.940;8.450;2023-07-20T10:39:30;913.80;;;818.30;;
6243;SDS011;3155;49.940;8.450;2023-07-20T10:44:29;138.07;;;125.77;;
6243;SDS011;3155;49.940;8.450;2023-07-20T10:47:01;667.13;;;611.33;;
6243;SDS011;3155;49.940;8.450;2023-07-20T10:49:30;5.85;;;5.53;;
6243;SDS011;3155;49.940;8.450;2023-07-20T10:51:59;131.40;;;121.32;;
6243;SDS011;3155;49.940;8.450;2023-07-20T10:59:46;2.05;;;1.70;;
6243;SDS011;3155;49.940;8.450;2023-07-20T11:02:17;3.67;;;1.70;;
6243;SDS011;3155;49.940;8.450;2023-07-20T11:04:47;25.17;;;23.30;;
6243;SDS011;3155;49.940;8.450;2023-07-20T11:07:16;2.10;;;1.63;;
6243;SDS011;3155;49.940;8.450;2023-07-20T11:09:44;2.10;;;1.70;;
6243;SDS011;3155;49.940;8.450;2023-07-20T11:12:17;3.53;;;1.53;;
6243;SDS011;3155;49.940;8.450;2023-07-20T11:14:54;1.60;;;1.50;;
6243;SDS011;3155;49.940;8.450;2023-07-20T11:17:31;1.48;;;1.35;;
6243;SDS011;3155;49.940;8.450;2023-07-20T11:19:59;1.77;;;1.65;;
6243;SDS011;3155;49.940;8.450;2023-07-20T11:22:32;1.88;;;1.67;;
6243;SDS011;3155;49.940;8.450;2023-07-20T11:25:00;2.85;;;1.65;;
6243;SDS011;3155;49.940;8.450;2023-07-20T11:27:27;1.70;;;1.60;;
6243;SDS011;3155;49.940;8.450;2023-07-20T11:29:55;1.90;;;1.80;;
6243;SDS011;3155;49.940;8.450;2023-07-20T11:32:23;2.58;;;1.60;;
6243;SDS011;3155;49.940;8.450;2023-07-20T11:34:51;1.95;;;1.60;;
6243;SDS011;3155;49.940;8.450;2023-07-20T11:37:18;1.33;;;1.33;;
6243;SDS011;3155;49.940;8.450;2023-07-20T11:39:45;3.38;;;1.60;;
6243;SDS011;3155;49.940;8.450;2023-07-20T11:42:13;1.30;;;1.20;;
6243;SDS011;3155;49.940;8.450;2023-07-20T11:45:04;1.75;;;1.55;;
6243;SDS011;3155;49.940;8.450;2023-07-20T11:47:32;2.03;;;1.60;;
6243;SDS011;3155;49.940;8.450;2023-07-20T11:50:03;1.83;;;1.67;;
6243;SDS011;3155;49.940;8.450;2023-07-20T11:52:31;1.52;;;1.42;;
6243;SDS011;3155;49.940;8.450;2023-07-20T11:54:58;8.73;;;1.47;;
6243;SDS011;3155;49.940;8.450;2023-07-20T11:57:26;2.70;;;1.52;;
6243;SDS011;3155;49.940;8.450;2023-07-20T11:59:53;1.93;;;1.70;;
6243;SDS011;3155;49.940;8.450;2023-07-20T12:02:26;1.55;;;1.45;;
6243;SDS011;3155;49.940;8.450;2023-07-20T12:04:54;1.65;;;1.50;;
6243;SDS011;3155;49.940;8.450;2023-07-20T12:07:21;1.60;;;1.50;;
6243;SDS011;3155;49.940;8.450;2023-07-20T12:12:32;3.00;;;1.63;;
6243;SDS011;3155;49.940;8.450;2023-07-20T12:15:13;1.92;;;1.52;;
6243;SDS011;3155;49.940;8.450;2023-07-20T12:17:44;3.38;;;1.30;;
6243;SDS011;3155;49.940;8.450;2023-07-20T12:20:12;1.50;;;1.30;;
6243;SDS011;3155;49.940;8.450;2023-07-20T12:22:40;1.60;;;1.50;;
6243;SDS011;3155;49.940;8.450;2023-07-20T12:25:07;3.30;;;1.50;;
6243;SDS011;3155;49.940;8.450;2023-07-20T12:27:36;2.20;;;1.60;;
6243;SDS011;3155;49.940;8.450;2023-07-20T12:30:06;2.25;;;1.50;;
6243;SDS011;3155;49.940;8.450;2023-07-20T12:32:34;2.22;;;1.58;;
6243;SDS011;3155;49.940;8.450;2023-07-20T12:35:01;2.38;;;1.40;;
6243;SDS011;3155;49.940;8.450;2023-07-20T12:37:28;1.52;;;1.25;;
6243;SDS011;3155;49.940;8.450;2023-07-20T12:39:55;1.45;;;1.38;;
6243;SDS011;3155;49.940;8.450;2023-07-20T12:42:22;1.50;;;1.45;;
6243;SDS011;3155;49.940;8.450;2023-07-20T12:44:50;2.33;;;1.50;;
6243;SDS011;3155;49.940;8.450;2023-07-20T12:47:17;1.15;;;1.15;;
6243;SDS011;3155;49.940;8.450;2023-07-20T12:49:45;2.30;;;1.23;;
6243;SDS011;3155;49.940;8.450;2023-07-20T12:52:16;1.60;;;1.50;;
6243;SDS011;3155;49.940;8.450;2023-07-20T12:54:45;1.60;;;1.20;;
6243;SDS011;3155;49.940;8.450;2023-07-20T12:57:12;1.50;;;1.40;;
6243;SDS011;3155;49.940;8.450;2023-07-20T12:59:39;1.40;;;1.30;;
6243;SDS011;3155;49.940;8.450;2023-07-20T13:02:07;1.77;;;1.30;;
6243;SDS011;3155;49.940;8.450;2023-07-20T13:04:34;2.00;;;1.40;;
6243;SDS011;3155;49.940;8.450;2023-07-20T13:07:01;1.55;;;1.33;;
6243;SDS011;3155;49.940;8.450;2023-07-20T13:09:48;3.72;;;1.38;;
6243;SDS011;3155;49.940;8.450;2023-07-20T13:12:18;1.60;;;1.50;;
6243;SDS011;3155;49.940;8.450;2023-07-20T13:14:48;1.50;;;1.40;;
6243;SDS011;3155;49.940;8.450;2023-07-20T13:17:15;1.60;;;1.50;;
6243;SDS011;3155;49.940;8.450;2023-07-20T13:19:45;1.10;;;1.10;;
6243;SDS011;3155;49.940;8.450;2023-07-20T13:22:13;1.30;;;1.20;;
6243;SDS011;3155;49.940;8.450;2023-07-20T13:24:41;1.60;;;1.50;;
6243;SDS011;3155;49.940;8.450;2023-07-20T13:27:10;3.93;;;1.40;;
6243;SDS011;3155;49.940;8.450;2023-07-20T13:29:37;1.42;;;1.33;;
6243;SDS011;3155;49.940;8.450;2023-07-20T13:32:04;1.75;;;1.50;;
6243;SDS011;3155;49.940;8.450;2023-07-20T13:34:33;1.30;;;1.30;;
6243;SDS011;3155;49.940;8.450;2023-07-20T13:37:00;1.90;;;1.60;;
6243;SDS011;3155;49.940;8.450;2023-07-20T13:39:27;2.22;;;1.70;;
6243;SDS011;3155;49.940;8.450;2023-07-20T13:41:57;1.40;;;1.40;;
6243;SDS011;3155;49.940;8.450;2023-07-20T13:44:24;1.30;;;1.23;;
6243;SDS011;3155;49.940;8.450;2023-07-20T13:46:51;1.53;;;1.43;;
6243;SDS011;3155;49.940;8.450;2023-07-20T13:49:39;1.40;;;1.30;;
6243;SDS011;3155;49.940;8.450;2023-07-20T13:52:13;2.10;;;1.38;;
6243;SDS011;3155;49.940;8.450;2023-07-20T13:54:43;1.40;;;1.30;;
6243;SDS011;3155;49.940;8.450;2023-07-20T13:57:13;2.25;;;1.60;;
6243;SDS011;3155;49.940;8.450;2023-07-20T13:59:41;3.22;;;1.52;;
6243;SDS011;3155;49.940;8.450;2023-07-20T14:02:09;1.93;;;1.40;;
6243;SDS011;3155;49.940;8.450;2023-07-20T14:04:39;1.80;;;1.50;;
6243;SDS011;3155;49.940;8.450;2023-07-20T14:07:07;1.90;;;1.60;;
6243;SDS011;3155;49.940;8.450;2023-07-20T14:09:35;1.77;;;1.50;;
6243;SDS011;3155;49.940;8.450;2023-07-20T14:12:25;1.40;;;1.30;;
6243;SDS011;3155;49.940;8.450;2023-07-20T14:14:53;2.20;;;1.58;;
6243;SDS011;3155;49.940;8.450;2023-07-20T14:17:21;3.47;;;1.47;;
6243;SDS011;3155;49.940;8.450;2023-07-20T14:19:49;1.60;;;1.40;;
6243;SDS011;3155;49.940;8.450;2023-07-20T14:22:17;2.20;;;1.65;;
6243;SDS011;3155;49.940;8.450;2023-07-20T14:24:45;1.50;;;1.40;;
6243;SDS011;3155;49.940;8.450;2023-07-20T14:27:12;1.35;;;1.33;;
6243;SDS011;3155;49.940;8.450;2023-07-20T14:29:39;1.67;;;1.60;;
6243;SDS011;3155;49.940;8.450;2023-07-20T14:32:06;1.52;;;1.42;;
6243;SDS011;3155;49.940;8.450;2023-07-20T14:34:34;1.67;;;1.58;;
6243;SDS011;3155;49.940;8.450;2023-07-20T14:37:05;2.50;;;1.30;;
6243;SDS011;3155;49.940;8.450;2023-07-20T14:39:32;1.50;;;1.40;;
6243;SDS011;3155;49.940;8.450;2023-07-20T14:41:59;1.40;;;1.13;;
6243;SDS011;3155;49.940;8.450;2023-07-20T14:44:27;5.28;;;1.48;;
6243;SDS011;3155;49.940;8.450;2023-07-20T14:46:56;1.33;;;1.33;;
6243;SDS011;3155;49.940;8.450;2023-07-20T14:49:38;4.03;;;1.50;;
6243;SDS011;3155;49.940;8.450;2023-07-20T14:52:05;1.42;;;1.30;;
6243;SDS011;3155;49.940;8.450;2023-07-20T14:54:41;1.60;;;1.40;;
6243;SDS011;3155;49.940;8.450;2023-07-20T14:57:08;1.33;;;1.30;;
6243;SDS011;3155;49.940;8.450;2023-07-20T14:59:40;4.35;;;1.30;;
6243;SDS011;3155;49.940;8.450;2023-07-20T15:02:11;1.20;;;1.10;;
6243;SDS011;3155;49.940;8.450;2023-07-20T15:04:45;1.30;;;1.20;;
6243;SDS011;3155;49.940;8.450;2023-07-20T15:07:16;1.25;;;1.25;;
6243;SDS011;3155;49.940;8.450;2023-07-20T15:09:44;1.30;;;1.30;;
6243;SDS011;3155;49.940;8.450;2023-07-20T15:12:12;1.52;;;1.35;;
6243;SDS011;3155;49.940;8.450;2023-07-20T15:14:41;4.50;;;1.58;;
6243;SDS011;3155;49.940;8.450;2023-07-20T15:17:09;2.60;;;1.23;;
6243;SDS011;3155;49.940;8.450;2023-07-20T15:19:39;2.40;;;1.30;;